Lightning — WDG8552 — position and weather

sailwx.info

Track history (hours):
 
Tides and Currents Weather Stations Pressure Air Temp Water Temp Dewpoint Dewpoint Depression Visibility Wind Speed Wind Dir Waves Ship Positions

Lightning

Owner: Boston Harbor Cruises, Boston, MA. More information available from US FCC via Universal Licensing System and Coast Guard Vessel Documentation Center.

Last reported at 2018-Jan-11 18:22 UTC. Time now 2018-Jan-20 05:34 UTC.
Position N 42°15' W 070°58'.
Warning: this ship's position is 8 days out of date.

Length 22 m; draft 2.6 m.

Type: High speed craft. MMSI: 367578720.

Date/timePositionNaut miles runAvg speedWind from/ knotsBaromVisibWave heightAir tempDewpointWater temp
2018-Jan-11 18:22N 42°15' W 070°58'2 3.9
2018-Jan-11 17:56N 42°16' W 070°56'8 0.2
2018-Jan-09 19:08N 42°22' W 071°03'0 0.4
2018-Jan-09 18:57N 42°22' W 071°03'2 3.4
2018-Jan-09 18:30N 42°21' W 071°01'5 9.8
2018-Jan-09 17:58N 42°18' W 070°55'3 6.1
2018-Jan-09 17:30N 42°20' W 070°58'4 8.0
2018-Jan-09 17:00N 42°22' W 071°03'0 0.0
2018-Jan-09 16:30N 42°22' W 071°03'0 0.6
2018-Jan-09 16:00N 42°22' W 071°03'1 0.7
2018-Jan-09 15:12N 42°22' W 071°02'0 1.3
2018-Jan-09 15:00N 42°22' W 071°02'0 0.1
2018-Jan-09 14:30N 42°22' W 071°02'0 0.3
2018-Jan-09 14:00N 42°22' W 071°02'611.8
2018-Jan-09 13:29N 42°18' W 070°55'713.9
2018-Jan-09 12:59N 42°22' W 071°03'713.3
2018-Jan-09 12:29N 42°18' W 070°55'2 5.0
2018-Jan-09 12:00N 42°20' W 070°57'4 8.7
2018-Jan-09 11:30N 42°22' W 071°03'612.0
2018-Jan-09 11:00N 42°19' W 070°56'612.1
2018-Jan-09 10:29N 42°22' W 071°03'0 0.0
2018-Jan-09 03:16N 42°22' W 071°03'1 3.4
2018-Jan-09 03:00N 42°22' W 071°02'1 1.9
2018-Jan-09 02:30N 42°22' W 071°03'713.2
2018-Jan-09 02:00N 42°19' W 070°55'2 4.6
2018-Jan-09 01:30N 42°20' W 070°57'3 3.4
2018-Jan-09 00:29N 42°22' W 071°02'4 6.5
2018-Jan-08 23:56N 42°20' W 070°57'410.5
2018-Jan-08 23:30N 42°22' W 071°03'610.0
2018-Jan-08 22:53N 42°18' W 070°56'616.4
2018-Jan-08 22:30N 42°22' W 071°03'1 1.0
2018-Jan-08 21:31N 42°22' W 071°02'0 2.7
2018-Jan-08 21:30N 42°22' W 071°02'5 9.5
2018-Jan-08 21:00N 42°19' W 070°56'611.6
2018-Jan-08 20:30N 42°22' W 071°03'7 8.1
2018-Jan-08 19:40N 42°18' W 070°55'0 0.0
2018-Jan-08 19:28N 42°18' W 070°55'714.2
2018-Jan-08 19:00N 42°22' W 071°03'1 2.6
2018-Jan-08 18:30N 42°21' W 071°01'3 3.6
2018-Jan-08 17:34N 42°20' W 070°57'222.6
2018-Jan-08 17:30N 42°20' W 070°59'3 6.3
2018-Jan-08 17:00N 42°22' W 071°03'0 0.0
2018-Jan-08 16:05N 42°22' W 071°03'0 0.9
2018-Jan-08 16:00N 42°22' W 071°03'1 1.3
2018-Jan-08 15:19N 42°22' W 071°02'516.1
2018-Jan-08 15:00N 42°19' W 070°56'5 9.7
2018-Jan-08 14:30N 42°22' W 071°02'0 0.5
2018-Jan-08 14:00N 42°21' W 071°02'610.5
2018-Jan-08 13:26N 42°18' W 070°55'715.6
2018-Jan-08 13:00N 42°22' W 071°03'711.0
2018-Jan-08 12:24N 42°18' W 070°55'  
2018-Jan-02 18:28N 42°22' W 071°03'0 0.0
2018-Jan-02 18:01N 42°22' W 071°03'0 0.2
2018-Jan-02 16:22N 42°22' W 071°03'0 0.8
2018-Jan-02 16:00N 42°22' W 071°02'0 0.6
2018-Jan-02 15:25N 42°22' W 071°02'1 0.9
2018-Jan-02 14:34N 42°22' W 071°03'0 3.6
2018-Jan-02 14:30N 42°22' W 071°03'0 0.2
2018-Jan-02 14:00N 42°22' W 071°03'1 1.6
2018-Jan-02 13:08N 42°21' W 071°01'211.2
2018-Jan-02 12:59N 42°22' W 071°03'7 8.1
2018-Jan-02 12:10N 42°18' W 070°55'0 1.9
2018-Jan-02 11:58N 42°18' W 070°56'713.1
2018-Jan-02 11:28N 42°22' W 071°03'5 7.0
2018-Jan-02 10:48N 42°20' W 070°57'  
Track history (hours):
 
Tides and Currents Weather Stations Pressure Air Temp Water Temp Dewpoint Dewpoint Depression Visibility Wind Speed Wind Dir Waves Ship Positions

Lightning

Owner: Boston Harbor Cruises, Boston, MA. More information available from US FCC via Universal Licensing System and Coast Guard Vessel Documentation Center.

Last reported at 2018-Jan-11 18:22 UTC. Time now 2018-Jan-20 05:34 UTC.
Position N 42°15' W 070°58'.
Warning: this ship's position is 8 days out of date.

Length 22 m; draft 2.6 m.

Type: High speed craft. MMSI: 367578720.

Date/timePositionNaut miles runAvg speedWind from/ knotsBaromVisibWave heightAir tempDewpointWater temp
2018-Jan-11 18:22N 42°15' W 070°58'2 3.9
2018-Jan-11 17:56N 42°16' W 070°56'8 0.2
2018-Jan-09 19:08N 42°22' W 071°03'0 0.4
2018-Jan-09 18:57N 42°22' W 071°03'2 3.4
2018-Jan-09 18:30N 42°21' W 071°01'5 9.8
2018-Jan-09 17:58N 42°18' W 070°55'3 6.1
2018-Jan-09 17:30N 42°20' W 070°58'4 8.0
2018-Jan-09 17:00N 42°22' W 071°03'0 0.0
2018-Jan-09 16:30N 42°22' W 071°03'0 0.6
2018-Jan-09 16:00N 42°22' W 071°03'1 0.7
2018-Jan-09 15:12N 42°22' W 071°02'0 1.3
2018-Jan-09 15:00N 42°22' W 071°02'0 0.1
2018-Jan-09 14:30N 42°22' W 071°02'0 0.3
2018-Jan-09 14:00N 42°22' W 071°02'611.8
2018-Jan-09 13:29N 42°18' W 070°55'713.9
2018-Jan-09 12:59N 42°22' W 071°03'713.3
2018-Jan-09 12:29N 42°18' W 070°55'2 5.0
2018-Jan-09 12:00N 42°20' W 070°57'4 8.7
2018-Jan-09 11:30N 42°22' W 071°03'612.0
2018-Jan-09 11:00N 42°19' W 070°56'612.1
2018-Jan-09 10:29N 42°22' W 071°03'0 0.0
2018-Jan-09 03:16N 42°22' W 071°03'1 3.4
2018-Jan-09 03:00N 42°22' W 071°02'1 1.9
2018-Jan-09 02:30N 42°22' W 071°03'713.2
2018-Jan-09 02:00N 42°19' W 070°55'2 4.6
2018-Jan-09 01:30N 42°20' W 070°57'3 3.4
2018-Jan-09 00:29N 42°22' W 071°02'4 6.5
2018-Jan-08 23:56N 42°20' W 070°57'410.5
2018-Jan-08 23:30N 42°22' W 071°03'610.0
2018-Jan-08 22:53N 42°18' W 070°56'616.4
2018-Jan-08 22:30N 42°22' W 071°03'1 1.0
2018-Jan-08 21:31N 42°22' W 071°02'0 2.7
2018-Jan-08 21:30N 42°22' W 071°02'5 9.5
2018-Jan-08 21:00N 42°19' W 070°56'611.6
2018-Jan-08 20:30N 42°22' W 071°03'7 8.1
2018-Jan-08 19:40N 42°18' W 070°55'0 0.0
2018-Jan-08 19:28N 42°18' W 070°55'714.2
2018-Jan-08 19:00N 42°22' W 071°03'1 2.6
2018-Jan-08 18:30N 42°21' W 071°01'3 3.6
2018-Jan-08 17:34N 42°20' W 070°57'222.6
2018-Jan-08 17:30N 42°20' W 070°59'3 6.3
2018-Jan-08 17:00N 42°22' W 071°03'0 0.0
2018-Jan-08 16:05N 42°22' W 071°03'0 0.9
2018-Jan-08 16:00N 42°22' W 071°03'1 1.3
2018-Jan-08 15:19N 42°22' W 071°02'516.1
2018-Jan-08 15:00N 42°19' W 070°56'5 9.7
2018-Jan-08 14:30N 42°22' W 071°02'0 0.5
2018-Jan-08 14:00N 42°21' W 071°02'610.5
2018-Jan-08 13:26N 42°18' W 070°55'715.6
2018-Jan-08 13:00N 42°22' W 071°03'711.0
2018-Jan-08 12:24N 42°18' W 070°55'  
2018-Jan-02 18:28N 42°22' W 071°03'0 0.0
2018-Jan-02 18:01N 42°22' W 071°03'0 0.2
2018-Jan-02 16:22N 42°22' W 071°03'0 0.8
2018-Jan-02 16:00N 42°22' W 071°02'0 0.6
2018-Jan-02 15:25N 42°22' W 071°02'1 0.9
2018-Jan-02 14:34N 42°22' W 071°03'0 3.6
2018-Jan-02 14:30N 42°22' W 071°03'0 0.2
2018-Jan-02 14:00N 42°22' W 071°03'1 1.6
2018-Jan-02 13:08N 42°21' W 071°01'211.2
2018-Jan-02 12:59N 42°22' W 071°03'7 8.1
2018-Jan-02 12:10N 42°18' W 070°55'0 1.9
2018-Jan-02 11:58N 42°18' W 070°56'713.1
2018-Jan-02 11:28N 42°22' W 071°03'5 7.0
2018-Jan-02 10:48N 42°20' W 070°57'  

Dump ship's entire track history